sensor_id;sensor_type;location;lat;lon;timestamp;P1;durP1;ratioP1;P2;durP2;ratioP2
6832;SDS011;3454;42.654;23.378;2022-09-27T00:02:01;10.23;;;8.00;;
6832;SDS011;3454;42.654;23.378;2022-09-27T00:04:27;10.20;;;7.00;;
6832;SDS011;3454;42.654;23.378;2022-09-27T00:06:52;7.90;;;7.15;;
6832;SDS011;3454;42.654;23.378;2022-09-27T00:09:18;8.93;;;7.22;;
6832;SDS011;3454;42.654;23.378;2022-09-27T00:11:43;7.70;;;6.90;;
6832;SDS011;3454;42.654;23.378;2022-09-27T00:14:11;9.52;;;7.32;;
6832;SDS011;3454;42.654;23.378;2022-09-27T00:16:39;9.75;;;7.25;;
6832;SDS011;3454;42.654;23.378;2022-09-27T00:19:15;14.48;;;7.53;;
6832;SDS011;3454;42.654;23.378;2022-09-27T00:21:43;8.48;;;7.20;;
6832;SDS011;3454;42.654;23.378;2022-09-27T00:24:13;8.77;;;6.47;;
6832;SDS011;3454;42.654;23.378;2022-09-27T00:26:40;8.40;;;7.25;;
6832;SDS011;3454;42.654;23.378;2022-09-27T00:29:06;9.27;;;7.82;;
6832;SDS011;3454;42.654;23.378;2022-09-27T00:31:31;9.68;;;7.82;;
6832;SDS011;3454;42.654;23.378;2022-09-27T00:33:59;9.40;;;7.50;;
6832;SDS011;3454;42.654;23.378;2022-09-27T00:36:26;8.47;;;7.53;;
6832;SDS011;3454;42.654;23.378;2022-09-27T00:38:53;8.43;;;7.57;;
6832;SDS011;3454;42.654;23.378;2022-09-27T00:41:21;9.75;;;7.40;;
6832;SDS011;3454;42.654;23.378;2022-09-27T00:43:58;8.15;;;7.32;;
6832;SDS011;3454;42.654;23.378;2022-09-27T00:49:08;7.60;;;6.80;;
6832;SDS011;3454;42.654;23.378;2022-09-27T00:51:47;8.95;;;6.15;;
6832;SDS011;3454;42.654;23.378;2022-09-27T00:54:19;6.63;;;5.57;;
6832;SDS011;3454;42.654;23.378;2022-09-27T00:56:48;8.82;;;6.35;;
6832;SDS011;3454;42.654;23.378;2022-09-27T00:59:26;8.68;;;6.82;;
6832;SDS011;3454;42.654;23.378;2022-09-27T01:01:56;7.95;;;6.50;;
6832;SDS011;3454;42.654;23.378;2022-09-27T01:04:21;7.72;;;6.70;;
6832;SDS011;3454;42.654;23.378;2022-09-27T01:06:51;8.40;;;6.38;;
6832;SDS011;3454;42.654;23.378;2022-09-27T01:09:16;7.30;;;6.38;;
6832;SDS011;3454;42.654;23.378;2022-09-27T01:20:30;8.75;;;6.63;;
6832;SDS011;3454;42.654;23.378;2022-09-27T01:29:06;10.05;;;7.30;;
6832;SDS011;3454;42.654;23.378;2022-09-27T01:31:48;8.05;;;6.75;;
6832;SDS011;3454;42.654;23.378;2022-09-27T01:34:27;7.70;;;6.70;;
6832;SDS011;3454;42.654;23.378;2022-09-27T01:39:54;8.07;;;6.20;;
6832;SDS011;3454;42.654;23.378;2022-09-27T01:45:08;12.40;;;9.15;;
6832;SDS011;3454;42.654;23.378;2022-09-27T01:47:43;9.80;;;7.00;;
6832;SDS011;3454;42.654;23.378;2022-09-27T01:50:14;9.90;;;7.97;;
6832;SDS011;3454;42.654;23.378;2022-09-27T01:55:29;11.07;;;7.45;;
6832;SDS011;3454;42.654;23.378;2022-09-27T02:00:38;8.35;;;7.45;;
6832;SDS011;3454;42.654;23.378;2022-09-27T02:03:13;11.43;;;7.37;;
6832;SDS011;3454;42.654;23.378;2022-09-27T02:05:54;9.70;;;7.70;;
6832;SDS011;3454;42.654;23.378;2022-09-27T02:08:27;9.30;;;7.43;;
6832;SDS011;3454;42.654;23.378;2022-09-27T02:10:59;10.45;;;7.40;;
6832;SDS011;3454;42.654;23.378;2022-09-27T02:13:30;10.48;;;7.88;;
6832;SDS011;3454;42.654;23.378;2022-09-27T02:16:01;11.07;;;7.97;;
6832;SDS011;3454;42.654;23.378;2022-09-27T02:18:45;8.77;;;6.63;;
6832;SDS011;3454;42.654;23.378;2022-09-27T02:21:18;7.47;;;6.70;;
6832;SDS011;3454;42.654;23.378;2022-09-27T02:23:46;8.57;;;6.75;;
6832;SDS011;3454;42.654;23.378;2022-09-27T02:26:19;7.40;;;6.60;;
6832;SDS011;3454;42.654;23.378;2022-09-27T02:31:48;10.23;;;7.05;;
6832;SDS011;3454;42.654;23.378;2022-09-27T02:36:40;7.72;;;6.93;;
6832;SDS011;3454;42.654;23.378;2022-09-27T02:39:05;9.45;;;7.88;;
6832;SDS011;3454;42.654;23.378;2022-09-27T02:41:31;8.63;;;7.55;;
6832;SDS011;3454;42.654;23.378;2022-09-27T02:43:59;8.27;;;7.20;;
6832;SDS011;3454;42.654;23.378;2022-09-27T02:54:43;10.57;;;8.05;;
6832;SDS011;3454;42.654;23.378;2022-09-27T03:02:31;9.77;;;7.83;;
6832;SDS011;3454;42.654;23.378;2022-09-27T03:07:29;11.20;;;9.13;;
6832;SDS011;3454;42.654;23.378;2022-09-27T03:09:55;13.10;;;9.38;;
6832;SDS011;3454;42.654;23.378;2022-09-27T03:12:20;11.50;;;8.32;;
6832;SDS011;3454;42.654;23.378;2022-09-27T03:14:50;12.38;;;8.63;;
6832;SDS011;3454;42.654;23.378;2022-09-27T03:17:25;13.23;;;9.32;;
6832;SDS011;3454;42.654;23.378;2022-09-27T03:19:51;12.93;;;8.18;;
6832;SDS011;3454;42.654;23.378;2022-09-27T03:22:16;12.40;;;9.27;;
6832;SDS011;3454;42.654;23.378;2022-09-27T03:24:42;10.40;;;9.07;;
6832;SDS011;3454;42.654;23.378;2022-09-27T03:27:08;10.15;;;8.65;;
6832;SDS011;3454;42.654;23.378;2022-09-27T03:29:34;10.63;;;9.10;;
6832;SDS011;3454;42.654;23.378;2022-09-27T03:32:00;12.70;;;8.73;;
6832;SDS011;3454;42.654;23.378;2022-09-27T03:34:26;10.82;;;8.68;;
6832;SDS011;3454;42.654;23.378;2022-09-27T03:36:52;9.52;;;8.35;;
6832;SDS011;3454;42.654;23.378;2022-09-27T03:39:17;10.63;;;8.40;;
6832;SDS011;3454;42.654;23.378;2022-09-27T03:41:43;9.93;;;8.23;;
6832;SDS011;3454;42.654;23.378;2022-09-27T03:44:08;11.52;;;8.57;;
6832;SDS011;3454;42.654;23.378;2022-09-27T03:46:34;10.20;;;8.93;;
6832;SDS011;3454;42.654;23.378;2022-09-27T03:48:59;12.07;;;9.10;;
6832;SDS011;3454;42.654;23.378;2022-09-27T03:51:25;12.53;;;9.23;;
6832;SDS011;3454;42.654;23.378;2022-09-27T03:53:51;12.75;;;10.25;;
6832;SDS011;3454;42.654;23.378;2022-09-27T03:56:17;10.88;;;9.75;;
6832;SDS011;3454;42.654;23.378;2022-09-27T03:58:42;11.85;;;10.57;;
6832;SDS011;3454;42.654;23.378;2022-09-27T04:01:09;11.77;;;9.73;;
6832;SDS011;3454;42.654;23.378;2022-09-27T04:03:35;11.23;;;9.98;;
6832;SDS011;3454;42.654;23.378;2022-09-27T04:06:01;10.60;;;9.20;;
6832;SDS011;3454;42.654;23.378;2022-09-27T04:08:27;10.88;;;9.77;;
6832;SDS011;3454;42.654;23.378;2022-09-27T04:10:54;14.15;;;9.98;;
6832;SDS011;3454;42.654;23.378;2022-09-27T04:13:19;11.80;;;10.25;;
6832;SDS011;3454;42.654;23.378;2022-09-27T04:15:45;13.90;;;11.03;;
6832;SDS011;3454;42.654;23.378;2022-09-27T04:18:10;12.40;;;10.80;;
6832;SDS011;3454;42.654;23.378;2022-09-27T04:20:36;14.93;;;11.63;;
6832;SDS011;3454;42.654;23.378;2022-09-27T04:23:01;14.95;;;13.27;;
6832;SDS011;3454;42.654;23.378;2022-09-27T04:25:27;14.02;;;11.73;;
6832;SDS011;3454;42.654;23.378;2022-09-27T04:27:53;15.90;;;12.63;;
6832;SDS011;3454;42.654;23.378;2022-09-27T04:30:19;14.07;;;12.50;;
6832;SDS011;3454;42.654;23.378;2022-09-27T04:32:46;13.02;;;11.73;;
6832;SDS011;3454;42.654;23.378;2022-09-27T04:35:12;15.07;;;12.18;;
6832;SDS011;3454;42.654;23.378;2022-09-27T04:37:49;15.88;;;14.27;;
6832;SDS011;3454;42.654;23.378;2022-09-27T04:40:15;14.70;;;12.95;;
6832;SDS011;3454;42.654;23.378;2022-09-27T04:42:41;15.77;;;13.05;;
6832;SDS011;3454;42.654;23.378;2022-09-27T04:45:06;14.87;;;12.40;;
6832;SDS011;3454;42.654;23.378;2022-09-27T04:47:32;12.57;;;10.80;;
6832;SDS011;3454;42.654;23.378;2022-09-27T04:49:59;13.90;;;11.27;;
6832;SDS011;3454;42.654;23.378;2022-09-27T04:52:24;13.52;;;10.82;;
6832;SDS011;3454;42.654;23.378;2022-09-27T04:54:50;13.37;;;11.97;;
6832;SDS011;3454;42.654;23.378;2022-09-27T04:57:15;14.38;;;11.23;;
6832;SDS011;3454;42.654;23.378;2022-09-27T04:59:41;14.23;;;11.70;;
6832;SDS011;3454;42.654;23.378;2022-09-27T05:02:06;14.85;;;11.68;;
6832;SDS011;3454;42.654;23.378;2022-09-27T05:04:32;17.45;;;12.65;;
6832;SDS011;3454;42.654;23.378;2022-09-27T05:06:57;13.93;;;10.80;;
6832;SDS011;3454;42.654;23.378;2022-09-27T05:09:23;15.80;;;11.73;;
6832;SDS011;3454;42.654;23.378;2022-09-27T05:11:48;14.05;;;11.30;;
6832;SDS011;3454;42.654;23.378;2022-09-27T05:14:14;13.30;;;11.90;;
6832;SDS011;3454;42.654;23.378;2022-09-27T05:16:39;16.40;;;12.55;;
6832;SDS011;3454;42.654;23.378;2022-09-27T05:19:05;17.25;;;14.10;;
6832;SDS011;3454;42.654;23.378;2022-09-27T05:21:30;15.50;;;12.83;;
6832;SDS011;3454;42.654;23.378;2022-09-27T05:23:56;16.63;;;12.68;;
6832;SDS011;3454;42.654;23.378;2022-09-27T05:26:22;13.80;;;12.38;;
6832;SDS011;3454;42.654;23.378;2022-09-27T05:28:47;15.68;;;12.57;;
6832;SDS011;3454;42.654;23.378;2022-09-27T05:31:13;14.35;;;11.65;;
6832;SDS011;3454;42.654;23.378;2022-09-27T05:33:38;18.95;;;12.77;;
6832;SDS011;3454;42.654;23.378;2022-09-27T05:36:05;17.05;;;14.65;;
6832;SDS011;3454;42.654;23.378;2022-09-27T05:38:31;15.80;;;12.10;;
6832;SDS011;3454;42.654;23.378;2022-09-27T05:40:56;16.20;;;12.32;;
6832;SDS011;3454;42.654;23.378;2022-09-27T05:43:22;15.45;;;12.48;;
6832;SDS011;3454;42.654;23.378;2022-09-27T05:45:49;15.82;;;12.45;;
6832;SDS011;3454;42.654;23.378;2022-09-27T05:48:17;14.63;;;13.10;;
6832;SDS011;3454;42.654;23.378;2022-09-27T05:50:42;13.93;;;12.35;;
6832;SDS011;3454;42.654;23.378;2022-09-27T05:53:09;18.02;;;14.70;;
6832;SDS011;3454;42.654;23.378;2022-09-27T05:55:42;16.98;;;13.40;;
6832;SDS011;3454;42.654;23.378;2022-09-27T05:58:08;16.65;;;13.13;;
6832;SDS011;3454;42.654;23.378;2022-09-27T06:00:36;17.50;;;14.45;;
6832;SDS011;3454;42.654;23.378;2022-09-27T06:03:03;19.13;;;15.13;;
6832;SDS011;3454;42.654;23.378;2022-09-27T06:05:33;17.48;;;14.50;;
6832;SDS011;3454;42.654;23.378;2022-09-27T06:08:05;14.75;;;13.18;;
6832;SDS011;3454;42.654;23.378;2022-09-27T06:10:32;17.25;;;13.32;;
6832;SDS011;3454;42.654;23.378;2022-09-27T06:12:59;14.02;;;12.52;;
6832;SDS011;3454;42.654;23.378;2022-09-27T06:15:26;15.02;;;13.07;;
6832;SDS011;3454;42.654;23.378;2022-09-27T06:17:53;15.02;;;13.10;;
6832;SDS011;3454;42.654;23.378;2022-09-27T06:20:19;16.40;;;14.70;;
6832;SDS011;3454;42.654;23.378;2022-09-27T06:22:45;17.58;;;15.27;;
6832;SDS011;3454;42.654;23.378;2022-09-27T06:25:11;16.55;;;14.45;;
6832;SDS011;3454;42.654;23.378;2022-09-27T06:27:37;20.35;;;16.02;;
6832;SDS011;3454;42.654;23.378;2022-09-27T06:30:03;19.77;;;16.35;;
6832;SDS011;3454;42.654;23.378;2022-09-27T06:32:29;19.67;;;14.93;;
6832;SDS011;3454;42.654;23.378;2022-09-27T06:34:55;26.20;;;17.67;;
6832;SDS011;3454;42.654;23.378;2022-09-27T06:37:23;20.42;;;15.93;;
6832;SDS011;3454;42.654;23.378;2022-09-27T06:39:50;18.60;;;15.40;;
6832;SDS011;3454;42.654;23.378;2022-09-27T06:42:17;21.10;;;17.10;;
6832;SDS011;3454;42.654;23.378;2022-09-27T06:44:43;19.13;;;16.08;;
6832;SDS011;3454;42.654;23.378;2022-09-27T06:47:11;20.00;;;15.68;;
6832;SDS011;3454;42.654;23.378;2022-09-27T06:49:38;21.55;;;17.08;;
6832;SDS011;3454;42.654;23.378;2022-09-27T06:52:04;18.42;;;16.23;;
6832;SDS011;3454;42.654;23.378;2022-09-27T06:54:30;22.25;;;15.30;;
6832;SDS011;3454;42.654;23.378;2022-09-27T06:56:55;20.17;;;16.17;;
6832;SDS011;3454;42.654;23.378;2022-09-27T06:59:21;19.20;;;14.45;;
6832;SDS011;3454;42.654;23.378;2022-09-27T07:02:05;21.63;;;15.73;;
6832;SDS011;3454;42.654;23.378;2022-09-27T07:04:31;16.98;;;14.98;;
6832;SDS011;3454;42.654;23.378;2022-09-27T07:06:56;17.35;;;15.10;;
6832;SDS011;3454;42.654;23.378;2022-09-27T07:09:22;17.08;;;14.25;;
6832;SDS011;3454;42.654;23.378;2022-09-27T07:11:47;19.08;;;14.20;;
6832;SDS011;3454;42.654;23.378;2022-09-27T07:14:13;19.23;;;14.23;;
6832;SDS011;3454;42.654;23.378;2022-09-27T07:16:40;18.30;;;14.50;;
6832;SDS011;3454;42.654;23.378;2022-09-27T07:19:06;16.60;;;14.70;;
6832;SDS011;3454;42.654;23.378;2022-09-27T07:21:39;20.10;;;15.02;;
6832;SDS011;3454;42.654;23.378;2022-09-27T07:24:04;17.90;;;14.93;;
6832;SDS011;3454;42.654;23.378;2022-09-27T07:26:30;17.90;;;14.38;;
6832;SDS011;3454;42.654;23.378;2022-09-27T07:28:55;15.02;;;12.23;;
6832;SDS011;3454;42.654;23.378;2022-09-27T07:31:21;16.73;;;12.43;;
6832;SDS011;3454;42.654;23.378;2022-09-27T07:33:48;15.00;;;13.38;;
6832;SDS011;3454;42.654;23.378;2022-09-27T07:36:14;14.63;;;13.07;;
6832;SDS011;3454;42.654;23.378;2022-09-27T07:38:40;17.15;;;13.73;;
6832;SDS011;3454;42.654;23.378;2022-09-27T07:41:09;14.70;;;13.15;;
6832;SDS011;3454;42.654;23.378;2022-09-27T07:43:39;15.00;;;13.32;;
6832;SDS011;3454;42.654;23.378;2022-09-27T07:46:05;20.17;;;13.35;;
6832;SDS011;3454;42.654;23.378;2022-09-27T07:48:31;14.77;;;12.82;;
6832;SDS011;3454;42.654;23.378;2022-09-27T07:50:57;18.25;;;14.30;;
6832;SDS011;3454;42.654;23.378;2022-09-27T07:53:22;35.08;;;30.70;;
6832;SDS011;3454;42.654;23.378;2022-09-27T07:55:52;52.97;;;41.85;;
6832;SDS011;3454;42.654;23.378;2022-09-27T07:58:18;52.10;;;41.22;;
6832;SDS011;3454;42.654;23.378;2022-09-27T08:00:44;39.80;;;33.53;;
6832;SDS011;3454;42.654;23.378;2022-09-27T08:03:11;42.95;;;34.30;;
6832;SDS011;3454;42.654;23.378;2022-09-27T08:05:44;34.55;;;29.27;;
6832;SDS011;3454;42.654;23.378;2022-09-27T08:08:11;36.95;;;29.63;;
6832;SDS011;3454;42.654;23.378;2022-09-27T08:10:37;34.88;;;29.67;;
6832;SDS011;3454;42.654;23.378;2022-09-27T08:13:06;39.60;;;31.13;;
6832;SDS011;3454;42.654;23.378;2022-09-27T08:15:31;33.78;;;28.15;;
6832;SDS011;3454;42.654;23.378;2022-09-27T08:18:00;35.20;;;27.98;;
6832;SDS011;3454;42.654;23.378;2022-09-27T08:20:25;30.45;;;24.65;;
6832;SDS011;3454;42.654;23.378;2022-09-27T08:22:51;31.83;;;25.83;;
6832;SDS011;3454;42.654;23.378;2022-09-27T08:25:17;35.17;;;25.45;;
6832;SDS011;3454;42.654;23.378;2022-09-27T08:27:42;24.80;;;19.60;;
6832;SDS011;3454;42.654;23.378;2022-09-27T08:30:08;23.48;;;18.67;;
6832;SDS011;3454;42.654;23.378;2022-09-27T08:32:34;20.65;;;18.25;;
6832;SDS011;3454;42.654;23.378;2022-09-27T08:34:59;18.95;;;16.75;;
6832;SDS011;3454;42.654;23.378;2022-09-27T08:37:25;25.27;;;16.90;;
6832;SDS011;3454;42.654;23.378;2022-09-27T08:39:50;22.75;;;16.90;;
6832;SDS011;3454;42.654;23.378;2022-09-27T08:47:39;22.63;;;18.30;;
6832;SDS011;3454;42.654;23.378;2022-09-27T08:50:27;21.23;;;17.88;;
6832;SDS011;3454;42.654;23.378;2022-09-27T08:55:30;21.95;;;19.42;;
6832;SDS011;3454;42.654;23.378;2022-09-27T08:58:01;20.40;;;18.15;;
6832;SDS011;3454;42.654;23.378;2022-09-27T09:00:36;21.13;;;18.65;;
6832;SDS011;3454;42.654;23.378;2022-09-27T09:03:03;23.88;;;19.08;;
6832;SDS011;3454;42.654;23.378;2022-09-27T09:05:29;26.02;;;20.83;;
6832;SDS011;3454;42.654;23.378;2022-09-27T09:16:04;27.23;;;21.85;;
6832;SDS011;3454;42.654;23.378;2022-09-27T09:23:55;30.30;;;24.05;;
6832;SDS011;3454;42.654;23.378;2022-09-27T09:34:13;24.90;;;20.38;;
6832;SDS011;3454;42.654;23.378;2022-09-27T09:36:54;26.85;;;19.52;;
6832;SDS011;3454;42.654;23.378;2022-09-27T09:42:12;21.02;;;16.98;;
6832;SDS011;3454;42.654;23.378;2022-09-27T09:47:26;25.45;;;19.35;;
6832;SDS011;3454;42.654;23.378;2022-09-27T09:50:04;26.42;;;18.60;;
6832;SDS011;3454;42.654;23.378;2022-09-27T09:52:55;21.08;;;16.05;;
6832;SDS011;3454;42.654;23.378;2022-09-27T09:55:27;22.02;;;15.30;;
6832;SDS011;3454;42.654;23.378;2022-09-27T09:58:18;16.58;;;14.35;;
6832;SDS011;3454;42.654;23.378;2022-09-27T10:00:49;18.13;;;15.38;;
6832;SDS011;3454;42.654;23.378;2022-09-27T10:03:18;17.25;;;15.50;;
6832;SDS011;3454;42.654;23.378;2022-09-27T10:05:43;20.35;;;13.90;;
6832;SDS011;3454;42.654;23.378;2022-09-27T10:08:21;18.63;;;15.60;;
6832;SDS011;3454;42.654;23.378;2022-09-27T10:10:48;17.48;;;15.48;;
6832;SDS011;3454;42.654;23.378;2022-09-27T10:13:15;15.98;;;14.38;;
6832;SDS011;3454;42.654;23.378;2022-09-27T10:15:45;19.45;;;13.80;;
6832;SDS011;3454;42.654;23.378;2022-09-27T10:18:17;20.27;;;14.80;;
6832;SDS011;3454;42.654;23.378;2022-09-27T10:20:55;18.58;;;14.82;;
6832;SDS011;3454;42.654;23.378;2022-09-27T10:23:23;17.05;;;14.90;;
6832;SDS011;3454;42.654;23.378;2022-09-27T10:25:59;20.70;;;15.45;;
6832;SDS011;3454;42.654;23.378;2022-09-27T10:31:05;19.88;;;15.65;;
6832;SDS011;3454;42.654;23.378;2022-09-27T10:33:33;19.30;;;14.98;;
6832;SDS011;3454;42.654;23.378;2022-09-27T10:36:02;15.65;;;14.05;;
6832;SDS011;3454;42.654;23.378;2022-09-27T10:40:55;16.58;;;13.57;;
6832;SDS011;3454;42.654;23.378;2022-09-27T10:48:31;19.13;;;16.00;;
6832;SDS011;3454;42.654;23.378;2022-09-27T10:51:00;21.85;;;17.08;;
6832;SDS011;3454;42.654;23.378;2022-09-27T10:53:28;21.60;;;17.75;;
6832;SDS011;3454;42.654;23.378;2022-09-27T10:55:55;25.75;;;18.65;;
6832;SDS011;3454;42.654;23.378;2022-09-27T11:00:56;20.90;;;18.67;;
6832;SDS011;3454;42.654;23.378;2022-09-27T11:03:25;21.23;;;18.75;;
6832;SDS011;3454;42.654;23.378;2022-09-27T11:05:53;19.38;;;15.35;;
6832;SDS011;3454;42.654;23.378;2022-09-27T11:08:20;23.35;;;17.52;;
6832;SDS011;3454;42.654;23.378;2022-09-27T11:13:24;17.48;;;14.57;;
6832;SDS011;3454;42.654;23.378;2022-09-27T11:18:38;18.20;;;14.43;;
6832;SDS011;3454;42.654;23.378;2022-09-27T11:24:12;21.15;;;15.95;;
6832;SDS011;3454;42.654;23.378;2022-09-27T11:31:58;21.75;;;15.43;;
6832;SDS011;3454;42.654;23.378;2022-09-27T12:09:28;13.43;;;9.30;;
6832;SDS011;3454;42.654;23.378;2022-09-27T12:12:04;12.57;;;11.15;;
6832;SDS011;3454;42.654;23.378;2022-09-27T12:14:44;11.73;;;10.13;;
6832;SDS011;3454;42.654;23.378;2022-09-27T12:17:15;10.50;;;9.48;;
6832;SDS011;3454;42.654;23.378;2022-09-27T12:19:45;10.02;;;8.38;;
6832;SDS011;3454;42.654;23.378;2022-09-27T12:22:15;9.80;;;8.00;;
6832;SDS011;3454;42.654;23.378;2022-09-27T12:24:50;9.35;;;7.93;;
6832;SDS011;3454;42.654;23.378;2022-09-27T12:27:38;10.85;;;7.18;;
6832;SDS011;3454;42.654;23.378;2022-09-27T12:30:10;8.60;;;7.78;;
6832;SDS011;3454;42.654;23.378;2022-09-27T12:32:50;7.45;;;6.72;;
6832;SDS011;3454;42.654;23.378;2022-09-27T12:35:28;8.15;;;5.97;;
6832;SDS011;3454;42.654;23.378;2022-09-27T12:40:54;6.57;;;5.95;;
6832;SDS011;3454;42.654;23.378;2022-09-27T12:43:28;7.05;;;5.70;;
6832;SDS011;3454;42.654;23.378;2022-09-27T12:51:13;8.07;;;5.35;;
6832;SDS011;3454;42.654;23.378;2022-09-27T12:59:08;11.23;;;8.23;;
6832;SDS011;3454;42.654;23.378;2022-09-27T13:09:39;4.82;;;4.20;;
6832;SDS011;3454;42.654;23.378;2022-09-27T13:12:22;4.47;;;4.10;;
6832;SDS011;3454;42.654;23.378;2022-09-27T13:22:54;3.67;;;3.38;;
6832;SDS011;3454;42.654;23.378;2022-09-27T13:44:11;3.03;;;2.72;;
6832;SDS011;3454;42.654;23.378;2022-09-27T13:46:50;3.13;;;2.42;;
6832;SDS011;3454;42.654;23.378;2022-09-27T13:49:24;2.53;;;2.40;;
6832;SDS011;3454;42.654;23.378;2022-09-27T13:51:59;3.00;;;2.40;;
6832;SDS011;3454;42.654;23.378;2022-09-27T13:54:48;10.00;;;3.95;;
6832;SDS011;3454;42.654;23.378;2022-09-27T13:59:59;5.68;;;3.05;;
6832;SDS011;3454;42.654;23.378;2022-09-27T14:02:30;4.80;;;3.95;;
6832;SDS011;3454;42.654;23.378;2022-09-27T14:05:03;7.38;;;4.47;;
6832;SDS011;3454;42.654;23.378;2022-09-27T14:07:41;4.05;;;3.15;;
6832;SDS011;3454;42.654;23.378;2022-09-27T14:10:15;2.78;;;2.42;;
6832;SDS011;3454;42.654;23.378;2022-09-27T14:12:42;4.18;;;2.60;;
6832;SDS011;3454;42.654;23.378;2022-09-27T14:15:17;5.07;;;3.03;;
6832;SDS011;3454;42.654;23.378;2022-09-27T14:17:45;3.35;;;2.40;;
6832;SDS011;3454;42.654;23.378;2022-09-27T14:23:02;4.28;;;2.80;;
6832;SDS011;3454;42.654;23.378;2022-09-27T14:25:28;3.83;;;2.70;;
6832;SDS011;3454;42.654;23.378;2022-09-27T14:27:54;4.00;;;2.95;;
6832;SDS011;3454;42.654;23.378;2022-09-27T14:30:24;4.68;;;2.97;;
6832;SDS011;3454;42.654;23.378;2022-09-27T14:32:52;4.13;;;2.75;;
6832;SDS011;3454;42.654;23.378;2022-09-27T14:35:20;6.82;;;3.20;;
6832;SDS011;3454;42.654;23.378;2022-09-27T14:38:09;2.95;;;2.75;;
6832;SDS011;3454;42.654;23.378;2022-09-27T14:41:10;6.50;;;3.15;;
6832;SDS011;3454;42.654;23.378;2022-09-27T14:43:32;3.97;;;2.63;;
6832;SDS011;3454;42.654;23.378;2022-09-27T14:46:01;5.72;;;2.75;;
6832;SDS011;3454;42.654;23.378;2022-09-27T14:48:33;3.65;;;2.60;;
6832;SDS011;3454;42.654;23.378;2022-09-27T14:51:50;3.65;;;3.10;;
6832;SDS011;3454;42.654;23.378;2022-09-27T14:53:55;3.58;;;3.08;;
6832;SDS011;3454;42.654;23.378;2022-09-27T14:56:34;6.32;;;2.50;;
6832;SDS011;3454;42.654;23.378;2022-09-27T14:59:03;7.97;;;3.05;;
6832;SDS011;3454;42.654;23.378;2022-09-27T15:01:35;5.03;;;3.28;;
6832;SDS011;3454;42.654;23.378;2022-09-27T15:04:04;7.43;;;3.20;;
6832;SDS011;3454;42.654;23.378;2022-09-27T15:06:33;3.38;;;2.88;;
6832;SDS011;3454;42.654;23.378;2022-09-27T15:09:01;3.85;;;3.00;;
6832;SDS011;3454;42.654;23.378;2022-09-27T15:11:27;3.35;;;2.50;;
6832;SDS011;3454;42.654;23.378;2022-09-27T15:13:54;4.82;;;2.63;;
6832;SDS011;3454;42.654;23.378;2022-09-27T15:16:21;6.60;;;2.70;;
6832;SDS011;3454;42.654;23.378;2022-09-27T15:21:41;1.58;;;0.93;;
6832;SDS011;3454;42.654;23.378;2022-09-27T15:24:33;3.53;;;1.40;;
6832;SDS011;3454;42.654;23.378;2022-09-27T15:27:14;3.20;;;1.45;;
6832;SDS011;3454;42.654;23.378;2022-09-27T15:29:46;2.95;;;1.92;;
6832;SDS011;3454;42.654;23.378;2022-09-27T15:32:15;12.00;;;2.03;;
6832;SDS011;3454;42.654;23.378;2022-09-27T15:34:43;3.05;;;1.70;;
6832;SDS011;3454;42.654;23.378;2022-09-27T15:37:22;3.65;;;1.98;;
6832;SDS011;3454;42.654;23.378;2022-09-27T15:39:51;3.00;;;1.23;;
6832;SDS011;3454;42.654;23.378;2022-09-27T15:42:16;4.68;;;1.20;;
6832;SDS011;3454;42.654;23.378;2022-09-27T15:55:11;3.65;;;1.83;;
6832;SDS011;3454;42.654;23.378;2022-09-27T15:57:37;2.25;;;1.73;;
6832;SDS011;3454;42.654;23.378;2022-09-27T16:00:04;4.57;;;2.22;;
6832;SDS011;3454;42.654;23.378;2022-09-27T16:02:31;2.75;;;1.90;;
6832;SDS011;3454;42.654;23.378;2022-09-27T16:04:56;4.45;;;1.75;;
6832;SDS011;3454;42.654;23.378;2022-09-27T16:07:22;3.92;;;1.70;;
6832;SDS011;3454;42.654;23.378;2022-09-27T16:09:50;4.82;;;2.28;;
6832;SDS011;3454;42.654;23.378;2022-09-27T16:12:23;2.72;;;2.17;;
6832;SDS011;3454;42.654;23.378;2022-09-27T16:14:49;5.75;;;2.50;;
6832;SDS011;3454;42.654;23.378;2022-09-27T16:17:18;7.43;;;2.45;;
6832;SDS011;3454;42.654;23.378;2022-09-27T16:19:43;7.97;;;2.53;;
6832;SDS011;3454;42.654;23.378;2022-09-27T16:22:08;9.32;;;2.33;;
6832;SDS011;3454;42.654;23.378;2022-09-27T16:24:34;1.90;;;1.30;;
6832;SDS011;3454;42.654;23.378;2022-09-27T16:27:00;1.52;;;0.93;;
6832;SDS011;3454;42.654;23.378;2022-09-27T16:29:27;2.50;;;1.40;;
6832;SDS011;3454;42.654;23.378;2022-09-27T16:31:52;2.28;;;1.50;;
6832;SDS011;3454;42.654;23.378;2022-09-27T16:34:18;2.85;;;2.13;;
6832;SDS011;3454;42.654;23.378;2022-09-27T16:36:50;6.07;;;2.90;;
6832;SDS011;3454;42.654;23.378;2022-09-27T16:39:20;4.22;;;2.28;;
6832;SDS011;3454;42.654;23.378;2022-09-27T16:41:45;9.57;;;2.50;;
6832;SDS011;3454;42.654;23.378;2022-09-27T16:44:11;11.40;;;3.70;;
6832;SDS011;3454;42.654;23.378;2022-09-27T16:46:40;8.88;;;3.42;;
6832;SDS011;3454;42.654;23.378;2022-09-27T16:49:06;9.27;;;3.20;;
6832;SDS011;3454;42.654;23.378;2022-09-27T16:51:56;6.15;;;2.85;;
6832;SDS011;3454;42.654;23.378;2022-09-27T16:54:26;6.53;;;3.05;;
6832;SDS011;3454;42.654;23.378;2022-09-27T16:56:53;4.55;;;2.70;;
6832;SDS011;3454;42.654;23.378;2022-09-27T16:59:20;3.28;;;1.92;;
6832;SDS011;3454;42.654;23.378;2022-09-27T17:01:46;3.22;;;1.65;;
6832;SDS011;3454;42.654;23.378;2022-09-27T17:04:11;1.75;;;1.58;;
6832;SDS011;3454;42.654;23.378;2022-09-27T17:06:38;2.08;;;1.88;;
6832;SDS011;3454;42.654;23.378;2022-09-27T17:09:04;2.33;;;1.73;;
6832;SDS011;3454;42.654;23.378;2022-09-27T17:11:29;5.25;;;2.90;;
6832;SDS011;3454;42.654;23.378;2022-09-27T17:13:55;7.85;;;3.25;;
6832;SDS011;3454;42.654;23.378;2022-09-27T17:16:21;6.75;;;3.65;;
6832;SDS011;3454;42.654;23.378;2022-09-27T17:18:47;6.28;;;3.60;;
6832;SDS011;3454;42.654;23.378;2022-09-27T17:21:12;4.63;;;2.97;;
6832;SDS011;3454;42.654;23.378;2022-09-27T17:23:38;4.63;;;2.97;;
6832;SDS011;3454;42.654;23.378;2022-09-27T17:26:13;5.88;;;3.83;;
6832;SDS011;3454;42.654;23.378;2022-09-27T17:31:06;4.57;;;3.28;;
6832;SDS011;3454;42.654;23.378;2022-09-27T17:33:35;5.60;;;3.55;;
6832;SDS011;3454;42.654;23.378;2022-09-27T17:36:05;7.82;;;4.30;;
6832;SDS011;3454;42.654;23.378;2022-09-27T17:38:32;7.35;;;3.33;;
6832;SDS011;3454;42.654;23.378;2022-09-27T17:41:03;5.90;;;3.60;;
6832;SDS011;3454;42.654;23.378;2022-09-27T17:43:31;6.95;;;4.35;;
6832;SDS011;3454;42.654;23.378;2022-09-27T17:46:05;6.75;;;4.35;;
6832;SDS011;3454;42.654;23.378;2022-09-27T17:48:33;8.05;;;4.38;;
6832;SDS011;3454;42.654;23.378;2022-09-27T17:51:12;7.82;;;5.10;;
6832;SDS011;3454;42.654;23.378;2022-09-27T17:53:38;8.32;;;4.28;;
6832;SDS011;3454;42.654;23.378;2022-09-27T17:56:04;5.47;;;3.88;;
6832;SDS011;3454;42.654;23.378;2022-09-27T17:58:30;6.10;;;3.63;;
6832;SDS011;3454;42.654;23.378;2022-09-27T18:01:05;5.95;;;5.05;;
6832;SDS011;3454;42.654;23.378;2022-09-27T18:03:38;7.25;;;4.20;;
6832;SDS011;3454;42.654;23.378;2022-09-27T18:06:04;9.35;;;4.05;;
6832;SDS011;3454;42.654;23.378;2022-09-27T18:08:34;10.77;;;4.30;;
6832;SDS011;3454;42.654;23.378;2022-09-27T18:11:06;10.70;;;4.28;;
6832;SDS011;3454;42.654;23.378;2022-09-27T18:13:39;6.18;;;4.15;;
6832;SDS011;3454;42.654;23.378;2022-09-27T18:16:10;9.43;;;5.05;;
6832;SDS011;3454;42.654;23.378;2022-09-27T18:18:38;7.13;;;4.97;;
6832;SDS011;3454;42.654;23.378;2022-09-27T18:21:06;7.45;;;5.28;;
6832;SDS011;3454;42.654;23.378;2022-09-27T18:23:36;7.57;;;5.03;;
6832;SDS011;3454;42.654;23.378;2022-09-27T18:26:02;18.05;;;5.40;;
6832;SDS011;3454;42.654;23.378;2022-09-27T18:28:33;9.38;;;5.32;;
6832;SDS011;3454;42.654;23.378;2022-09-27T18:31:24;13.77;;;5.35;;
6832;SDS011;3454;42.654;23.378;2022-09-27T18:33:49;8.40;;;5.13;;
6832;SDS011;3454;42.654;23.378;2022-09-27T18:36:16;10.75;;;6.28;;